Terminal Aerodrome Forecast
Issued by NWS

Home | Current Version | Previous Version | Text Only | Print | Product List | Glossary On
Versions: 1 2 3 4 5 6 7 8 9 10 11 12 13 14 15 16 17 18 19 20 21 22 23 24 25 26 27 28 29 30 31 32
000
FTUS41 KPBZ 041100 CCA
TAFFKL
TAF COR
KFKL 041143Z 0412/0512 26006KT 2SM -SN BR BKN005
     FM041800 28006KT P6SM OVC015 PROB30 0500/0506 P6SM -SN BKN010
     FM050900 34005KT P6SM OVC050
      AMD LTD TO CLD VIS AND WIND=

USA.gov is the U.S. government's official web portal to all federal, state and local government web resources and services.